sensor_id;sensor_type;location;lat;lon;timestamp;P1;durP1;ratioP1;P2;durP2;ratioP2
23628;SDS011;11991;57.150;-2.134;2023-05-07T00:02:08;2.30;;;1.85;;
23628;SDS011;11991;57.150;-2.134;2023-05-07T00:04:35;2.72;;;1.92;;
23628;SDS011;11991;57.150;-2.134;2023-05-07T00:07:04;3.50;;;1.90;;
23628;SDS011;11991;57.150;-2.134;2023-05-07T00:09:32;3.40;;;1.85;;
23628;SDS011;11991;57.150;-2.134;2023-05-07T00:11:59;3.80;;;2.15;;
23628;SDS011;11991;57.150;-2.134;2023-05-07T00:14:26;1.77;;;1.50;;
23628;SDS011;11991;57.150;-2.134;2023-05-07T00:16:53;1.77;;;1.42;;
23628;SDS011;11991;57.150;-2.134;2023-05-07T00:19:20;2.67;;;1.77;;
23628;SDS011;11991;57.150;-2.134;2023-05-07T00:21:47;1.80;;;1.23;;
23628;SDS011;11991;57.150;-2.134;2023-05-07T00:24:14;1.63;;;1.00;;
23628;SDS011;11991;57.150;-2.134;2023-05-07T00:26:41;2.42;;;1.50;;
23628;SDS011;11991;57.150;-2.134;2023-05-07T00:29:08;0.77;;;0.77;;
23628;SDS011;11991;57.150;-2.134;2023-05-07T00:31:35;1.20;;;1.08;;
23628;SDS011;11991;57.150;-2.134;2023-05-07T00:34:02;1.90;;;1.25;;
23628;SDS011;11991;57.150;-2.134;2023-05-07T00:36:29;1.15;;;1.05;;
23628;SDS011;11991;57.150;-2.134;2023-05-07T00:38:57;2.80;;;1.70;;
23628;SDS011;11991;57.150;-2.134;2023-05-07T00:41:26;2.33;;;1.25;;
23628;SDS011;11991;57.150;-2.134;2023-05-07T00:43:53;2.08;;;1.67;;
23628;SDS011;11991;57.150;-2.134;2023-05-07T00:46:20;2.70;;;1.73;;
23628;SDS011;11991;57.150;-2.134;2023-05-07T00:48:48;2.42;;;1.95;;
23628;SDS011;11991;57.150;-2.134;2023-05-07T00:51:18;2.22;;;1.95;;
23628;SDS011;11991;57.150;-2.134;2023-05-07T00:53:46;10.60;;;2.95;;
23628;SDS011;11991;57.150;-2.134;2023-05-07T00:56:13;4.03;;;2.17;;
23628;SDS011;11991;57.150;-2.134;2023-05-07T00:58:40;2.03;;;1.45;;
23628;SDS011;11991;57.150;-2.134;2023-05-07T01:01:08;3.50;;;1.92;;
23628;SDS011;11991;57.150;-2.134;2023-05-07T01:03:35;2.30;;;1.40;;
23628;SDS011;11991;57.150;-2.134;2023-05-07T01:06:02;3.28;;;1.77;;
23628;SDS011;11991;57.150;-2.134;2023-05-07T01:08:31;4.15;;;2.30;;
23628;SDS011;11991;57.150;-2.134;2023-05-07T01:10:59;1.60;;;1.30;;
23628;SDS011;11991;57.150;-2.134;2023-05-07T01:13:27;1.20;;;1.10;;
23628;SDS011;11991;57.150;-2.134;2023-05-07T01:15:54;2.03;;;1.60;;
23628;SDS011;11991;57.150;-2.134;2023-05-07T01:18:21;3.22;;;1.88;;
23628;SDS011;11991;57.150;-2.134;2023-05-07T01:20:49;2.22;;;1.30;;
23628;SDS011;11991;57.150;-2.134;2023-05-07T01:23:16;1.67;;;1.30;;
23628;SDS011;11991;57.150;-2.134;2023-05-07T01:25:54;1.10;;;0.98;;
23628;SDS011;11991;57.150;-2.134;2023-05-07T01:28:24;3.70;;;2.00;;
23628;SDS011;11991;57.150;-2.134;2023-05-07T01:30:56;2.55;;;1.63;;
23628;SDS011;11991;57.150;-2.134;2023-05-07T01:33:28;1.23;;;1.13;;
23628;SDS011;11991;57.150;-2.134;2023-05-07T01:35:58;2.22;;;1.67;;
23628;SDS011;11991;57.150;-2.134;2023-05-07T01:38:28;2.15;;;1.33;;
23628;SDS011;11991;57.150;-2.134;2023-05-07T01:40:57;1.98;;;1.38;;
23628;SDS011;11991;57.150;-2.134;2023-05-07T01:43:24;2.70;;;1.60;;
23628;SDS011;11991;57.150;-2.134;2023-05-07T01:45:52;2.38;;;1.73;;
23628;SDS011;11991;57.150;-2.134;2023-05-07T01:48:20;2.28;;;1.33;;
23628;SDS011;11991;57.150;-2.134;2023-05-07T01:50:47;2.70;;;1.85;;
23628;SDS011;11991;57.150;-2.134;2023-05-07T01:53:15;1.70;;;1.27;;
23628;SDS011;11991;57.150;-2.134;2023-05-07T01:55:42;2.58;;;1.52;;
23628;SDS011;11991;57.150;-2.134;2023-05-07T01:58:09;2.35;;;1.45;;
23628;SDS011;11991;57.150;-2.134;2023-05-07T02:00:37;3.75;;;1.92;;
23628;SDS011;11991;57.150;-2.134;2023-05-07T02:03:05;3.58;;;2.00;;
23628;SDS011;11991;57.150;-2.134;2023-05-07T02:05:40;2.30;;;1.60;;
23628;SDS011;11991;57.150;-2.134;2023-05-07T02:08:18;2.83;;;1.60;;
23628;SDS011;11991;57.150;-2.134;2023-05-07T02:10:45;3.00;;;1.77;;
23628;SDS011;11991;57.150;-2.134;2023-05-07T02:13:12;2.22;;;1.50;;
23628;SDS011;11991;57.150;-2.134;2023-05-07T02:15:39;1.83;;;1.25;;
23628;SDS011;11991;57.150;-2.134;2023-05-07T02:18:07;2.17;;;1.38;;
23628;SDS011;11991;57.150;-2.134;2023-05-07T02:20:36;3.90;;;2.17;;
23628;SDS011;11991;57.150;-2.134;2023-05-07T02:23:03;1.90;;;1.23;;
23628;SDS011;11991;57.150;-2.134;2023-05-07T02:25:30;1.48;;;1.02;;
23628;SDS011;11991;57.150;-2.134;2023-05-07T02:27:58;2.28;;;1.15;;
23628;SDS011;11991;57.150;-2.134;2023-05-07T02:30:45;1.33;;;1.02;;
23628;SDS011;11991;57.150;-2.134;2023-05-07T02:33:12;1.83;;;1.25;;
23628;SDS011;11991;57.150;-2.134;2023-05-07T02:35:40;2.78;;;1.55;;
23628;SDS011;11991;57.150;-2.134;2023-05-07T02:38:09;2.25;;;1.50;;
23628;SDS011;11991;57.150;-2.134;2023-05-07T02:40:38;3.78;;;2.13;;
23628;SDS011;11991;57.150;-2.134;2023-05-07T02:43:06;2.65;;;1.42;;
23628;SDS011;11991;57.150;-2.134;2023-05-07T02:45:34;2.00;;;1.38;;
23628;SDS011;11991;57.150;-2.134;2023-05-07T02:48:03;1.25;;;0.93;;
23628;SDS011;11991;57.150;-2.134;2023-05-07T02:50:30;1.20;;;1.10;;
23628;SDS011;11991;57.150;-2.134;2023-05-07T02:52:58;2.17;;;1.30;;
23628;SDS011;11991;57.150;-2.134;2023-05-07T02:55:25;2.63;;;1.23;;
23628;SDS011;11991;57.150;-2.134;2023-05-07T02:57:53;1.60;;;1.13;;
23628;SDS011;11991;57.150;-2.134;2023-05-07T03:00:20;3.25;;;1.77;;
23628;SDS011;11991;57.150;-2.134;2023-05-07T03:03:00;2.03;;;1.30;;
23628;SDS011;11991;57.150;-2.134;2023-05-07T03:05:27;1.83;;;1.38;;
23628;SDS011;11991;57.150;-2.134;2023-05-07T03:07:55;2.55;;;1.63;;
23628;SDS011;11991;57.150;-2.134;2023-05-07T03:10:22;2.33;;;1.90;;
23628;SDS011;11991;57.150;-2.134;2023-05-07T03:12:49;1.80;;;1.27;;
23628;SDS011;11991;57.150;-2.134;2023-05-07T03:15:16;2.53;;;1.70;;
23628;SDS011;11991;57.150;-2.134;2023-05-07T03:17:44;2.45;;;1.77;;
23628;SDS011;11991;57.150;-2.134;2023-05-07T03:20:11;2.25;;;1.60;;
23628;SDS011;11991;57.150;-2.134;2023-05-07T03:22:40;1.45;;;1.15;;
23628;SDS011;11991;57.150;-2.134;2023-05-07T03:25:07;1.95;;;1.25;;
23628;SDS011;11991;57.150;-2.134;2023-05-07T03:27:34;1.85;;;1.23;;
23628;SDS011;11991;57.150;-2.134;2023-05-07T03:30:02;3.83;;;2.22;;
23628;SDS011;11991;57.150;-2.134;2023-05-07T03:32:30;2.58;;;1.73;;
23628;SDS011;11991;57.150;-2.134;2023-05-07T03:34:57;3.65;;;2.13;;
23628;SDS011;11991;57.150;-2.134;2023-05-07T03:37:24;3.67;;;2.08;;
23628;SDS011;11991;57.150;-2.134;2023-05-07T03:39:52;3.30;;;1.92;;
23628;SDS011;11991;57.150;-2.134;2023-05-07T03:42:19;3.72;;;1.80;;
23628;SDS011;11991;57.150;-2.134;2023-05-07T03:44:49;3.72;;;2.08;;
23628;SDS011;11991;57.150;-2.134;2023-05-07T03:47:17;2.53;;;1.85;;
23628;SDS011;11991;57.150;-2.134;2023-05-07T03:49:45;2.05;;;1.40;;
23628;SDS011;11991;57.150;-2.134;2023-05-07T03:52:13;5.05;;;2.60;;
23628;SDS011;11991;57.150;-2.134;2023-05-07T03:54:40;3.17;;;1.85;;
23628;SDS011;11991;57.150;-2.134;2023-05-07T03:57:10;1.63;;;1.20;;
23628;SDS011;11991;57.150;-2.134;2023-05-07T03:59:38;3.20;;;1.85;;
23628;SDS011;11991;57.150;-2.134;2023-05-07T04:02:06;2.50;;;1.48;;
23628;SDS011;11991;57.150;-2.134;2023-05-07T04:04:34;4.40;;;2.10;;
23628;SDS011;11991;57.150;-2.134;2023-05-07T04:07:01;3.55;;;1.85;;
23628;SDS011;11991;57.150;-2.134;2023-05-07T04:09:29;4.63;;;2.08;;
23628;SDS011;11991;57.150;-2.134;2023-05-07T04:11:56;2.28;;;1.85;;
23628;SDS011;11991;57.150;-2.134;2023-05-07T04:14:24;3.08;;;1.60;;
23628;SDS011;11991;57.150;-2.134;2023-05-07T04:16:51;6.30;;;2.90;;
23628;SDS011;11991;57.150;-2.134;2023-05-07T04:19:18;1.88;;;1.52;;
23628;SDS011;11991;57.150;-2.134;2023-05-07T04:21:49;4.22;;;2.15;;
23628;SDS011;11991;57.150;-2.134;2023-05-07T04:24:16;1.83;;;1.20;;
23628;SDS011;11991;57.150;-2.134;2023-05-07T04:26:44;2.13;;;1.73;;
23628;SDS011;11991;57.150;-2.134;2023-05-07T04:29:11;3.22;;;1.83;;
23628;SDS011;11991;57.150;-2.134;2023-05-07T04:31:38;4.22;;;2.35;;
23628;SDS011;11991;57.150;-2.134;2023-05-07T04:34:05;6.30;;;3.63;;
23628;SDS011;11991;57.150;-2.134;2023-05-07T04:36:33;3.97;;;2.17;;
23628;SDS011;11991;57.150;-2.134;2023-05-07T04:39:06;4.80;;;2.58;;
23628;SDS011;11991;57.150;-2.134;2023-05-07T04:41:35;3.78;;;2.38;;
23628;SDS011;11991;57.150;-2.134;2023-05-07T04:44:04;6.20;;;3.28;;
23628;SDS011;11991;57.150;-2.134;2023-05-07T04:46:32;2.92;;;1.95;;
23628;SDS011;11991;57.150;-2.134;2023-05-07T04:48:59;2.83;;;1.90;;
23628;SDS011;11991;57.150;-2.134;2023-05-07T04:51:27;4.28;;;2.47;;
23628;SDS011;11991;57.150;-2.134;2023-05-07T04:53:54;4.50;;;2.10;;
23628;SDS011;11991;57.150;-2.134;2023-05-07T04:56:21;5.40;;;1.92;;
23628;SDS011;11991;57.150;-2.134;2023-05-07T04:58:48;4.55;;;2.05;;
23628;SDS011;11991;57.150;-2.134;2023-05-07T05:01:18;2.22;;;1.60;;
23628;SDS011;11991;57.150;-2.134;2023-05-07T05:03:46;3.25;;;1.95;;
23628;SDS011;11991;57.150;-2.134;2023-05-07T05:06:13;3.13;;;2.15;;
23628;SDS011;11991;57.150;-2.134;2023-05-07T05:08:40;1.98;;;1.38;;
23628;SDS011;11991;57.150;-2.134;2023-05-07T05:11:09;2.95;;;1.65;;
23628;SDS011;11991;57.150;-2.134;2023-05-07T05:13:36;2.63;;;1.50;;
23628;SDS011;11991;57.150;-2.134;2023-05-07T05:16:10;4.57;;;2.10;;
23628;SDS011;11991;57.150;-2.134;2023-05-07T05:18:38;2.17;;;1.45;;
23628;SDS011;11991;57.150;-2.134;2023-05-07T05:21:05;2.58;;;1.77;;
23628;SDS011;11991;57.150;-2.134;2023-05-07T05:23:32;2.83;;;1.63;;
23628;SDS011;11991;57.150;-2.134;2023-05-07T05:25:59;1.85;;;1.35;;
23628;SDS011;11991;57.150;-2.134;2023-05-07T05:28:30;1.63;;;1.30;;
23628;SDS011;11991;57.150;-2.134;2023-05-07T05:30:57;1.60;;;1.33;;
23628;SDS011;11991;57.150;-2.134;2023-05-07T05:33:26;2.75;;;1.35;;
23628;SDS011;11991;57.150;-2.134;2023-05-07T05:35:58;1.75;;;1.13;;
23628;SDS011;11991;57.150;-2.134;2023-05-07T05:38:25;2.00;;;1.30;;
23628;SDS011;11991;57.150;-2.134;2023-05-07T05:40:53;4.47;;;2.33;;
23628;SDS011;11991;57.150;-2.134;2023-05-07T05:43:22;3.85;;;2.25;;
23628;SDS011;11991;57.150;-2.134;2023-05-07T05:45:49;3.20;;;1.70;;
23628;SDS011;11991;57.150;-2.134;2023-05-07T05:48:16;1.90;;;1.27;;
23628;SDS011;11991;57.150;-2.134;2023-05-07T05:50:44;4.90;;;2.13;;
23628;SDS011;11991;57.150;-2.134;2023-05-07T05:53:13;2.83;;;1.70;;
23628;SDS011;11991;57.150;-2.134;2023-05-07T05:55:40;2.45;;;1.55;;
23628;SDS011;11991;57.150;-2.134;2023-05-07T05:58:08;1.42;;;1.33;;
23628;SDS011;11991;57.150;-2.134;2023-05-07T06:00:39;2.38;;;1.58;;
23628;SDS011;11991;57.150;-2.134;2023-05-07T06:03:06;3.08;;;1.98;;
23628;SDS011;11991;57.150;-2.134;2023-05-07T06:05:34;2.03;;;1.63;;
23628;SDS011;11991;57.150;-2.134;2023-05-07T06:08:01;2.10;;;1.60;;
23628;SDS011;11991;57.150;-2.134;2023-05-07T06:10:31;2.35;;;1.55;;
23628;SDS011;11991;57.150;-2.134;2023-05-07T06:12:59;2.72;;;2.05;;
23628;SDS011;11991;57.150;-2.134;2023-05-07T06:15:27;3.85;;;2.60;;
23628;SDS011;11991;57.150;-2.134;2023-05-07T06:17:56;2.55;;;1.88;;
23628;SDS011;11991;57.150;-2.134;2023-05-07T06:20:24;4.53;;;2.20;;
23628;SDS011;11991;57.150;-2.134;2023-05-07T06:22:51;3.97;;;1.92;;
23628;SDS011;11991;57.150;-2.134;2023-05-07T06:25:18;3.53;;;2.55;;
23628;SDS011;11991;57.150;-2.134;2023-05-07T06:27:45;2.40;;;1.75;;
23628;SDS011;11991;57.150;-2.134;2023-05-07T06:30:13;2.67;;;1.48;;
23628;SDS011;11991;57.150;-2.134;2023-05-07T06:32:40;1.80;;;1.35;;
23628;SDS011;11991;57.150;-2.134;2023-05-07T06:35:08;3.92;;;2.10;;
23628;SDS011;11991;57.150;-2.134;2023-05-07T06:37:37;4.95;;;2.30;;
23628;SDS011;11991;57.150;-2.134;2023-05-07T06:40:07;4.55;;;2.47;;
23628;SDS011;11991;57.150;-2.134;2023-05-07T06:42:37;5.05;;;2.33;;
23628;SDS011;11991;57.150;-2.134;2023-05-07T06:45:21;4.28;;;2.67;;
23628;SDS011;11991;57.150;-2.134;2023-05-07T06:47:49;2.72;;;1.95;;
23628;SDS011;11991;57.150;-2.134;2023-05-07T06:50:16;3.65;;;2.10;;
23628;SDS011;11991;57.150;-2.134;2023-05-07T06:52:43;2.35;;;1.65;;
23628;SDS011;11991;57.150;-2.134;2023-05-07T06:55:11;5.55;;;2.72;;
23628;SDS011;11991;57.150;-2.134;2023-05-07T06:57:38;2.60;;;1.77;;
23628;SDS011;11991;57.150;-2.134;2023-05-07T07:00:05;4.07;;;2.28;;
23628;SDS011;11991;57.150;-2.134;2023-05-07T07:02:44;5.25;;;3.15;;
23628;SDS011;11991;57.150;-2.134;2023-05-07T07:05:13;2.30;;;1.90;;
23628;SDS011;11991;57.150;-2.134;2023-05-07T07:07:40;4.10;;;2.65;;
23628;SDS011;11991;57.150;-2.134;2023-05-07T07:10:07;1.90;;;1.30;;
23628;SDS011;11991;57.150;-2.134;2023-05-07T07:12:35;4.97;;;2.55;;
23628;SDS011;11991;57.150;-2.134;2023-05-07T07:15:02;3.58;;;2.10;;
23628;SDS011;11991;57.150;-2.134;2023-05-07T07:17:29;4.22;;;2.38;;
23628;SDS011;11991;57.150;-2.134;2023-05-07T07:19:56;5.85;;;2.55;;
23628;SDS011;11991;57.150;-2.134;2023-05-07T07:22:23;3.15;;;2.13;;
23628;SDS011;11991;57.150;-2.134;2023-05-07T07:24:50;4.13;;;2.65;;
23628;SDS011;11991;57.150;-2.134;2023-05-07T07:27:18;3.55;;;2.47;;
23628;SDS011;11991;57.150;-2.134;2023-05-07T07:29:45;7.15;;;3.25;;
23628;SDS011;11991;57.150;-2.134;2023-05-07T07:32:12;5.20;;;2.40;;
23628;SDS011;11991;57.150;-2.134;2023-05-07T07:34:39;3.33;;;2.20;;
23628;SDS011;11991;57.150;-2.134;2023-05-07T07:37:07;7.53;;;2.88;;
23628;SDS011;11991;57.150;-2.134;2023-05-07T07:39:36;6.72;;;2.88;;
23628;SDS011;11991;57.150;-2.134;2023-05-07T07:42:07;5.07;;;2.42;;
23628;SDS011;11991;57.150;-2.134;2023-05-07T07:44:34;4.82;;;2.70;;
23628;SDS011;11991;57.150;-2.134;2023-05-07T07:47:06;4.75;;;2.35;;
23628;SDS011;11991;57.150;-2.134;2023-05-07T07:49:34;2.60;;;1.83;;
23628;SDS011;11991;57.150;-2.134;2023-05-07T07:52:04;3.03;;;2.00;;
23628;SDS011;11991;57.150;-2.134;2023-05-07T07:54:34;4.47;;;2.72;;
23628;SDS011;11991;57.150;-2.134;2023-05-07T07:57:02;4.88;;;2.63;;
23628;SDS011;11991;57.150;-2.134;2023-05-07T07:59:31;3.70;;;2.45;;
23628;SDS011;11991;57.150;-2.134;2023-05-07T08:01:59;1.85;;;1.42;;
23628;SDS011;11991;57.150;-2.134;2023-05-07T08:04:28;2.92;;;2.10;;
23628;SDS011;11991;57.150;-2.134;2023-05-07T08:06:56;3.95;;;2.30;;
23628;SDS011;11991;57.150;-2.134;2023-05-07T08:09:24;3.38;;;2.60;;
23628;SDS011;11991;57.150;-2.134;2023-05-07T08:11:53;2.17;;;1.30;;
23628;SDS011;11991;57.150;-2.134;2023-05-07T08:14:20;2.45;;;1.42;;
23628;SDS011;11991;57.150;-2.134;2023-05-07T08:16:47;2.63;;;1.83;;
23628;SDS011;11991;57.150;-2.134;2023-05-07T08:19:14;2.17;;;1.90;;
23628;SDS011;11991;57.150;-2.134;2023-05-07T08:21:42;3.10;;;1.98;;
23628;SDS011;11991;57.150;-2.134;2023-05-07T08:24:10;3.78;;;2.67;;
23628;SDS011;11991;57.150;-2.134;2023-05-07T08:26:38;2.28;;;1.48;;
23628;SDS011;11991;57.150;-2.134;2023-05-07T08:29:08;2.15;;;1.55;;
23628;SDS011;11991;57.150;-2.134;2023-05-07T08:31:35;2.05;;;1.30;;
23628;SDS011;11991;57.150;-2.134;2023-05-07T08:34:08;2.15;;;1.38;;
23628;SDS011;11991;57.150;-2.134;2023-05-07T08:36:39;2.45;;;1.90;;
23628;SDS011;11991;57.150;-2.134;2023-05-07T08:39:10;2.33;;;1.85;;
23628;SDS011;11991;57.150;-2.134;2023-05-07T08:41:37;2.67;;;1.77;;
23628;SDS011;11991;57.150;-2.134;2023-05-07T08:44:04;2.03;;;1.83;;
23628;SDS011;11991;57.150;-2.134;2023-05-07T08:46:37;3.47;;;2.10;;
23628;SDS011;11991;57.150;-2.134;2023-05-07T08:49:06;2.38;;;1.65;;
23628;SDS011;11991;57.150;-2.134;2023-05-07T08:51:34;5.72;;;2.92;;
23628;SDS011;11991;57.150;-2.134;2023-05-07T08:54:02;4.82;;;2.58;;
23628;SDS011;11991;57.150;-2.134;2023-05-07T08:56:32;6.18;;;3.33;;
23628;SDS011;11991;57.150;-2.134;2023-05-07T08:59:00;6.85;;;3.60;;
23628;SDS011;11991;57.150;-2.134;2023-05-07T09:01:28;3.88;;;2.50;;
23628;SDS011;11991;57.150;-2.134;2023-05-07T09:03:57;6.70;;;3.55;;
23628;SDS011;11991;57.150;-2.134;2023-05-07T09:06:26;4.38;;;2.38;;
23628;SDS011;11991;57.150;-2.134;2023-05-07T09:08:54;6.38;;;3.00;;
23628;SDS011;11991;57.150;-2.134;2023-05-07T09:11:25;6.13;;;3.10;;
23628;SDS011;11991;57.150;-2.134;2023-05-07T09:13:54;6.63;;;3.83;;
23628;SDS011;11991;57.150;-2.134;2023-05-07T09:16:24;8.00;;;2.92;;
23628;SDS011;11991;57.150;-2.134;2023-05-07T09:18:53;7.85;;;3.33;;
23628;SDS011;11991;57.150;-2.134;2023-05-07T09:21:22;6.55;;;3.75;;
23628;SDS011;11991;57.150;-2.134;2023-05-07T09:23:52;5.45;;;3.15;;
23628;SDS011;11991;57.150;-2.134;2023-05-07T09:26:26;4.35;;;2.30;;
23628;SDS011;11991;57.150;-2.134;2023-05-07T09:28:54;4.25;;;2.65;;
23628;SDS011;11991;57.150;-2.134;2023-05-07T09:31:22;3.58;;;2.20;;
23628;SDS011;11991;57.150;-2.134;2023-05-07T09:33:54;5.18;;;2.63;;
23628;SDS011;11991;57.150;-2.134;2023-05-07T09:36:24;6.82;;;3.35;;
23628;SDS011;11991;57.150;-2.134;2023-05-07T09:38:53;4.78;;;2.58;;
23628;SDS011;11991;57.150;-2.134;2023-05-07T09:41:22;5.03;;;2.85;;
23628;SDS011;11991;57.150;-2.134;2023-05-07T09:43:59;3.33;;;2.03;;
23628;SDS011;11991;57.150;-2.134;2023-05-07T09:46:36;8.93;;;4.40;;
23628;SDS011;11991;57.150;-2.134;2023-05-07T09:49:20;8.63;;;3.97;;
23628;SDS011;11991;57.150;-2.134;2023-05-07T09:51:55;16.33;;;5.47;;
23628;SDS011;11991;57.150;-2.134;2023-05-07T09:54:25;6.38;;;3.63;;
23628;SDS011;11991;57.150;-2.134;2023-05-07T09:56:55;5.13;;;3.25;;
23628;SDS011;11991;57.150;-2.134;2023-05-07T09:59:25;7.35;;;4.30;;
23628;SDS011;11991;57.150;-2.134;2023-05-07T10:01:57;6.68;;;3.55;;
23628;SDS011;11991;57.150;-2.134;2023-05-07T10:04:27;7.45;;;3.60;;
23628;SDS011;11991;57.150;-2.134;2023-05-07T10:06:55;6.15;;;3.15;;
23628;SDS011;11991;57.150;-2.134;2023-05-07T10:09:23;7.50;;;4.53;;
23628;SDS011;11991;57.150;-2.134;2023-05-07T10:11:52;6.82;;;3.83;;
23628;SDS011;11991;57.150;-2.134;2023-05-07T10:14:21;6.50;;;4.05;;
23628;SDS011;11991;57.150;-2.134;2023-05-07T10:16:49;14.18;;;5.35;;
23628;SDS011;11991;57.150;-2.134;2023-05-07T10:19:16;6.57;;;3.72;;
23628;SDS011;11991;57.150;-2.134;2023-05-07T10:21:59;8.73;;;4.82;;
23628;SDS011;11991;57.150;-2.134;2023-05-07T10:24:33;5.75;;;3.55;;
23628;SDS011;11991;57.150;-2.134;2023-05-07T10:27:09;3.85;;;2.63;;
23628;SDS011;11991;57.150;-2.134;2023-05-07T10:35:21;4.28;;;3.28;;
23628;SDS011;11991;57.150;-2.134;2023-05-07T10:37:53;3.83;;;2.45;;
23628;SDS011;11991;57.150;-2.134;2023-05-07T10:40:21;3.20;;;2.13;;
23628;SDS011;11991;57.150;-2.134;2023-05-07T10:42:54;6.30;;;4.30;;
23628;SDS011;11991;57.150;-2.134;2023-05-07T10:45:34;3.17;;;2.03;;
23628;SDS011;11991;57.150;-2.134;2023-05-07T10:51:19;3.28;;;2.53;;
23628;SDS011;11991;57.150;-2.134;2023-05-07T10:56:46;2.25;;;1.83;;
23628;SDS011;11991;57.150;-2.134;2023-05-07T11:01:54;2.60;;;2.25;;
23628;SDS011;11991;57.150;-2.134;2023-05-07T11:04:37;1.67;;;1.58;;
23628;SDS011;11991;57.150;-2.134;2023-05-07T11:07:29;2.28;;;2.00;;
23628;SDS011;11991;57.150;-2.134;2023-05-07T11:10:02;1.13;;;1.02;;
23628;SDS011;11991;57.150;-2.134;2023-05-07T11:13:06;4.50;;;2.50;;
23628;SDS011;11991;57.150;-2.134;2023-05-07T11:15:46;1.58;;;1.42;;
23628;SDS011;11991;57.150;-2.134;2023-05-07T11:18:48;2.97;;;2.13;;
23628;SDS011;11991;57.150;-2.134;2023-05-07T11:21:35;1.80;;;1.45;;
23628;SDS011;11991;57.150;-2.134;2023-05-07T11:24:25;3.50;;;2.55;;
23628;SDS011;11991;57.150;-2.134;2023-05-07T11:26:58;2.80;;;2.00;;
23628;SDS011;11991;57.150;-2.134;2023-05-07T11:29:28;2.08;;;1.83;;
23628;SDS011;11991;57.150;-2.134;2023-05-07T11:32:05;2.40;;;2.05;;
23628;SDS011;11991;57.150;-2.134;2023-05-07T11:34:42;2.40;;;1.83;;
23628;SDS011;11991;57.150;-2.134;2023-05-07T11:37:11;2.13;;;1.63;;
23628;SDS011;11991;57.150;-2.134;2023-05-07T11:39:51;4.00;;;2.78;;
23628;SDS011;11991;57.150;-2.134;2023-05-07T11:42:28;3.05;;;2.15;;
23628;SDS011;11991;57.150;-2.134;2023-05-07T11:44:56;2.63;;;1.80;;
23628;SDS011;11991;57.150;-2.134;2023-05-07T11:47:23;4.30;;;3.08;;
23628;SDS011;11991;57.150;-2.134;2023-05-07T11:49:52;3.28;;;2.28;;
23628;SDS011;11991;57.150;-2.134;2023-05-07T11:52:21;5.28;;;3.25;;
23628;SDS011;11991;57.150;-2.134;2023-05-07T11:57:22;3.65;;;3.15;;
23628;SDS011;11991;57.150;-2.134;2023-05-07T12:00:01;3.50;;;2.47;;
23628;SDS011;11991;57.150;-2.134;2023-05-07T12:02:40;3.92;;;2.25;;
23628;SDS011;11991;57.150;-2.134;2023-05-07T12:05:08;2.78;;;2.35;;
23628;SDS011;11991;57.150;-2.134;2023-05-07T12:07:36;6.25;;;3.97;;
23628;SDS011;11991;57.150;-2.134;2023-05-07T12:10:04;3.85;;;2.65;;
23628;SDS011;11991;57.150;-2.134;2023-05-07T12:12:39;3.00;;;2.30;;
23628;SDS011;11991;57.150;-2.134;2023-05-07T12:15:09;2.95;;;2.22;;
23628;SDS011;11991;57.150;-2.134;2023-05-07T12:17:37;3.83;;;2.33;;
23628;SDS011;11991;57.150;-2.134;2023-05-07T12:20:04;4.45;;;3.08;;
23628;SDS011;11991;57.150;-2.134;2023-05-07T12:22:33;3.47;;;2.25;;
23628;SDS011;11991;57.150;-2.134;2023-05-07T12:25:01;2.58;;;2.00;;
23628;SDS011;11991;57.150;-2.134;2023-05-07T12:27:29;4.95;;;3.28;;
23628;SDS011;11991;57.150;-2.134;2023-05-07T12:29:57;3.55;;;2.50;;
23628;SDS011;11991;57.150;-2.134;2023-05-07T12:32:25;4.22;;;2.50;;
23628;SDS011;11991;57.150;-2.134;2023-05-07T12:34:52;4.60;;;3.15;;
23628;SDS011;11991;57.150;-2.134;2023-05-07T12:37:25;5.55;;;3.38;;
23628;SDS011;11991;57.150;-2.134;2023-05-07T12:42:37;3.03;;;2.38;;
23628;SDS011;11991;57.150;-2.134;2023-05-07T12:45:12;6.10;;;3.72;;
23628;SDS011;11991;57.150;-2.134;2023-05-07T12:47:43;4.40;;;2.60;;
23628;SDS011;11991;57.150;-2.134;2023-05-07T12:50:12;3.40;;;2.60;;
23628;SDS011;11991;57.150;-2.134;2023-05-07T12:52:43;3.95;;;2.58;;
23628;SDS011;11991;57.150;-2.134;2023-05-07T12:55:12;4.03;;;2.67;;
23628;SDS011;11991;57.150;-2.134;2023-05-07T12:57:42;6.70;;;4.88;;
23628;SDS011;11991;57.150;-2.134;2023-05-07T13:00:12;5.03;;;3.20;;
23628;SDS011;11991;57.150;-2.134;2023-05-07T13:02:40;4.55;;;2.83;;
23628;SDS011;11991;57.150;-2.134;2023-05-07T13:05:11;3.78;;;2.70;;
23628;SDS011;11991;57.150;-2.134;2023-05-07T13:07:38;4.60;;;2.92;;
23628;SDS011;11991;57.150;-2.134;2023-05-07T13:10:07;4.32;;;2.88;;
23628;SDS011;11991;57.150;-2.134;2023-05-07T13:12:34;5.28;;;3.28;;
23628;SDS011;11991;57.150;-2.134;2023-05-07T13:15:02;8.43;;;4.90;;
23628;SDS011;11991;57.150;-2.134;2023-05-07T13:17:29;4.82;;;2.92;;
23628;SDS011;11991;57.150;-2.134;2023-05-07T13:19:57;6.15;;;3.85;;
23628;SDS011;11991;57.150;-2.134;2023-05-07T13:22:25;5.35;;;3.50;;
23628;SDS011;11991;57.150;-2.134;2023-05-07T13:24:52;3.05;;;2.33;;
23628;SDS011;11991;57.150;-2.134;2023-05-07T13:27:19;7.57;;;4.20;;
23628;SDS011;11991;57.150;-2.134;2023-05-07T13:29:47;4.68;;;2.95;;
23628;SDS011;11991;57.150;-2.134;2023-05-07T13:32:14;6.00;;;3.80;;
23628;SDS011;11991;57.150;-2.134;2023-05-07T13:34:41;3.75;;;2.97;;
23628;SDS011;11991;57.150;-2.134;2023-05-07T13:37:08;3.92;;;2.97;;
23628;SDS011;11991;57.150;-2.134;2023-05-07T13:39:37;4.38;;;2.38;;
23628;SDS011;11991;57.150;-2.134;2023-05-07T13:42:04;3.20;;;2.70;;
23628;SDS011;11991;57.150;-2.134;2023-05-07T13:44:31;3.25;;;2.25;;
23628;SDS011;11991;57.150;-2.134;2023-05-07T13:46:58;1.80;;;1.52;;
23628;SDS011;11991;57.150;-2.134;2023-05-07T13:49:25;3.03;;;2.15;;
23628;SDS011;11991;57.150;-2.134;2023-05-07T13:51:52;2.42;;;1.85;;
23628;SDS011;11991;57.150;-2.134;2023-05-07T13:54:19;2.67;;;1.92;;
23628;SDS011;11991;57.150;-2.134;2023-05-07T13:56:47;2.30;;;1.83;;
23628;SDS011;11991;57.150;-2.134;2023-05-07T13:59:14;1.75;;;1.40;;
23628;SDS011;11991;57.150;-2.134;2023-05-07T14:01:42;3.25;;;2.03;;
23628;SDS011;11991;57.150;-2.134;2023-05-07T14:04:09;2.65;;;2.10;;
23628;SDS011;11991;57.150;-2.134;2023-05-07T14:06:36;2.15;;;1.48;;
23628;SDS011;11991;57.150;-2.134;2023-05-07T14:09:03;2.30;;;1.65;;
23628;SDS011;11991;57.150;-2.134;2023-05-07T14:11:30;1.35;;;1.20;;
23628;SDS011;11991;57.150;-2.134;2023-05-07T14:14:00;1.15;;;1.00;;
23628;SDS011;11991;57.150;-2.134;2023-05-07T14:16:27;1.23;;;1.13;;
23628;SDS011;11991;57.150;-2.134;2023-05-07T14:18:54;1.40;;;1.27;;
23628;SDS011;11991;57.150;-2.134;2023-05-07T14:21:23;2.63;;;2.03;;
23628;SDS011;11991;57.150;-2.134;2023-05-07T14:23:50;2.38;;;1.88;;
23628;SDS011;11991;57.150;-2.134;2023-05-07T14:26:17;1.58;;;1.08;;
23628;SDS011;11991;57.150;-2.134;2023-05-07T14:28:45;2.85;;;1.67;;
23628;SDS011;11991;57.150;-2.134;2023-05-07T14:31:12;1.98;;;1.40;;
23628;SDS011;11991;57.150;-2.134;2023-05-07T14:33:39;1.48;;;1.10;;
23628;SDS011;11991;57.150;-2.134;2023-05-07T14:36:07;1.30;;;1.13;;
23628;SDS011;11991;57.150;-2.134;2023-05-07T14:38:34;1.38;;;0.93;;
23628;SDS011;11991;57.150;-2.134;2023-05-07T14:41:02;1.58;;;1.40;;
23628;SDS011;11991;57.150;-2.134;2023-05-07T14:43:29;2.95;;;2.47;;
23628;SDS011;11991;57.150;-2.134;2023-05-07T14:45:56;2.75;;;1.98;;
23628;SDS011;11991;57.150;-2.134;2023-05-07T14:48:23;1.98;;;1.55;;
23628;SDS011;11991;57.150;-2.134;2023-05-07T14:50:50;2.42;;;2.17;;
23628;SDS011;11991;57.150;-2.134;2023-05-07T14:53:17;2.42;;;2.22;;
23628;SDS011;11991;57.150;-2.134;2023-05-07T14:55:44;2.95;;;2.38;;
23628;SDS011;11991;57.150;-2.134;2023-05-07T14:58:12;3.40;;;2.35;;
23628;SDS011;11991;57.150;-2.134;2023-05-07T15:00:39;4.60;;;3.53;;
23628;SDS011;11991;57.150;-2.134;2023-05-07T15:03:07;4.85;;;3.65;;
23628;SDS011;11991;57.150;-2.134;2023-05-07T15:05:36;6.65;;;4.75;;